createdAt,value
2019-03-19T00:01:33.687Z,3.90
2019-03-19T00:04:02.577Z,3.70
2019-03-19T00:06:31.426Z,3.97
2019-03-19T00:09:00.272Z,3.90
2019-03-19T00:11:29.083Z,3.33
2019-03-19T00:13:58.033Z,3.63
2019-03-19T00:16:26.947Z,3.40
2019-03-19T00:18:55.778Z,3.43
2019-03-19T00:21:24.707Z,3.80
2019-03-19T00:23:53.680Z,3.50
2019-03-19T00:26:22.729Z,3.80
2019-03-19T00:28:51.608Z,3.23
2019-03-19T00:31:20.442Z,3.97
2019-03-19T00:33:49.457Z,3.60
2019-03-19T00:36:18.369Z,3.70
2019-03-19T00:38:47.304Z,3.77
2019-03-19T00:41:16.652Z,3.40
2019-03-19T00:43:45.531Z,3.43
2019-03-19T00:46:14.529Z,3.27
2019-03-19T00:48:43.376Z,4.10
2019-03-19T00:51:12.292Z,3.43
2019-03-19T00:53:41.115Z,3.50
2019-03-19T00:56:12.381Z,4.33
2019-03-19T00:58:41.233Z,3.13
2019-03-19T01:01:10.293Z,3.20
2019-03-19T01:03:39.210Z,3.47
2019-03-19T01:06:08.222Z,3.60
2019-03-19T01:08:37.242Z,3.53
2019-03-19T01:11:06.262Z,3.50
2019-03-19T01:13:35.207Z,3.57
2019-03-19T01:16:04.173Z,3.83
2019-03-19T01:18:34.739Z,3.90
2019-03-19T01:21:03.755Z,3.70
2019-03-19T01:23:32.693Z,3.70
2019-03-19T01:26:01.630Z,3.07
2019-03-19T01:28:30.474Z,4.37
2019-03-19T01:30:59.424Z,3.83
2019-03-19T01:33:28.350Z,3.47
2019-03-19T01:35:57.302Z,4.00
2019-03-19T01:38:26.174Z,4.17
2019-03-19T01:40:55.037Z,3.80
2019-03-19T01:43:23.897Z,3.43
2019-03-19T01:45:52.742Z,3.17
2019-03-19T01:48:21.690Z,3.70
2019-03-19T01:50:50.521Z,3.40
2019-03-19T01:53:19.437Z,3.50
2019-03-19T01:55:48.323Z,3.97
2019-03-19T01:58:17.261Z,3.33
2019-03-19T02:00:46.170Z,3.30
2019-03-19T02:03:15.118Z,3.73
2019-03-19T02:05:43.947Z,3.33
2019-03-19T02:08:12.834Z,3.97
2019-03-19T02:10:41.728Z,3.47
2019-03-19T02:13:10.623Z,3.80
2019-03-19T02:15:39.604Z,3.83
2019-03-19T02:18:08.445Z,3.37
2019-03-19T02:20:38.927Z,3.90
2019-03-19T02:23:07.775Z,3.47
2019-03-19T02:25:36.702Z,3.70
2019-03-19T02:28:05.678Z,3.60
2019-03-19T02:30:34.563Z,3.33
2019-03-19T02:33:03.599Z,3.43
2019-03-19T02:35:32.452Z,3.57
2019-03-19T02:38:01.377Z,3.50
2019-03-19T02:40:30.420Z,3.53
2019-03-19T02:42:59.327Z,3.93
2019-03-19T02:45:28.239Z,3.53
2019-03-19T02:47:57.107Z,3.87
2019-03-19T02:50:26.053Z,3.40
2019-03-19T02:52:54.980Z,3.30
2019-03-19T02:55:23.923Z,4.30
2019-03-19T02:57:52.877Z,3.97
2019-03-19T03:00:21.912Z,4.37
2019-03-19T03:02:50.904Z,4.60
2019-03-19T03:05:19.912Z,4.73
2019-03-19T03:07:48.991Z,4.07
2019-03-19T03:10:18.034Z,3.80
2019-03-19T03:12:46.910Z,4.03
2019-03-19T03:15:16.132Z,3.90
2019-03-19T03:17:45.150Z,4.30
2019-03-19T03:20:14.253Z,3.33
2019-03-19T03:22:43.364Z,3.50
2019-03-19T03:25:12.345Z,4.30
2019-03-19T03:27:41.403Z,4.50
2019-03-19T03:30:11.665Z,4.17
2019-03-19T03:32:40.634Z,4.20
2019-03-19T03:35:10.280Z,3.97
2019-03-19T03:37:39.382Z,4.03
2019-03-19T03:40:09.991Z,3.90
2019-03-19T03:42:38.921Z,4.10
2019-03-19T03:45:08.401Z,3.47
2019-03-19T03:47:37.319Z,4.00
2019-03-19T03:50:06.520Z,4.00
2019-03-19T03:52:35.426Z,3.73
2019-03-19T03:55:04.786Z,4.43
2019-03-19T03:57:33.705Z,4.40
2019-03-19T04:00:02.715Z,4.77
2019-03-19T04:02:31.602Z,5.00
2019-03-19T04:05:00.658Z,4.70
2019-03-19T04:07:29.511Z,4.43
2019-03-19T04:09:58.360Z,4.17
2019-03-19T04:12:27.186Z,3.93
2019-03-19T04:14:56.096Z,5.40
2019-03-19T04:17:25.015Z,4.27
2019-03-19T04:19:53.809Z,4.00
2019-03-19T04:22:22.682Z,4.57
2019-03-19T04:24:51.590Z,4.37
2019-03-19T04:27:20.415Z,4.63
2019-03-19T04:29:49.354Z,5.30
2019-03-19T04:32:18.186Z,5.03
2019-03-19T04:34:47.056Z,4.83
2019-03-19T04:37:15.948Z,5.13
2019-03-19T04:39:44.787Z,5.97
2019-03-19T04:42:13.617Z,5.77
2019-03-19T04:44:42.474Z,5.50
2019-03-19T04:47:11.358Z,5.27
2019-03-19T04:49:40.198Z,5.53
2019-03-19T04:52:09.087Z,5.87
2019-03-19T04:54:37.921Z,5.73
2019-03-19T04:57:06.816Z,6.07
2019-03-19T04:59:35.672Z,5.27
2019-03-19T05:02:04.678Z,5.63
2019-03-19T05:04:33.525Z,5.03
2019-03-19T05:07:02.428Z,4.67
2019-03-19T05:09:31.272Z,5.40
2019-03-19T05:12:00.127Z,5.30
2019-03-19T05:14:29.062Z,5.47
2019-03-19T05:16:57.914Z,6.87
2019-03-19T05:19:26.766Z,6.77
2019-03-19T05:21:55.650Z,6.03
2019-03-19T05:24:24.470Z,6.80
2019-03-19T05:26:53.284Z,5.60
2019-03-19T05:29:22.114Z,5.80
2019-03-19T05:31:52.666Z,6.20
2019-03-19T05:34:21.498Z,6.07
2019-03-19T05:36:50.406Z,6.03
2019-03-19T05:39:19.378Z,6.73
2019-03-19T05:41:48.218Z,9.00
2019-03-19T05:44:17.027Z,7.50
2019-03-19T05:46:45.864Z,7.87
2019-03-19T05:49:14.677Z,8.60
2019-03-19T05:51:43.510Z,8.87
2019-03-19T05:54:12.330Z,8.83
2019-03-19T05:56:41.284Z,8.30
2019-03-19T05:59:10.126Z,7.67
2019-03-19T06:01:39.053Z,8.10
2019-03-19T06:04:07.942Z,7.40
2019-03-19T06:06:36.754Z,8.00
2019-03-19T06:09:08.274Z,8.93
2019-03-19T06:11:37.194Z,9.53
2019-03-19T06:14:06.171Z,8.87
2019-03-19T06:16:35.000Z,9.67
2019-03-19T06:19:03.990Z,10.87
2019-03-19T06:21:32.882Z,10.50
2019-03-19T06:24:01.751Z,9.47
2019-03-19T06:26:30.615Z,9.27
2019-03-19T06:28:59.541Z,11.07
2019-03-19T06:31:28.466Z,9.90
2019-03-19T06:33:57.297Z,10.47
2019-03-19T06:36:26.214Z,11.13
2019-03-19T06:38:55.054Z,11.03
2019-03-19T06:41:23.877Z,12.33
2019-03-19T06:43:52.714Z,11.17
2019-03-19T06:46:21.634Z,12.73
2019-03-19T06:48:50.494Z,12.67
2019-03-19T06:51:19.337Z,13.23
2019-03-19T06:53:48.222Z,13.27
2019-03-19T06:56:17.063Z,11.07
2019-03-19T06:58:45.899Z,13.73
2019-03-19T07:01:15.573Z,12.40
2019-03-19T07:04:04.586Z,13.00
2019-03-19T07:06:33.450Z,12.70
2019-03-19T07:09:02.386Z,13.13
2019-03-19T07:11:31.237Z,13.53
2019-03-19T07:14:00.068Z,13.80
2019-03-19T07:16:28.915Z,14.33
2019-03-19T07:18:57.766Z,14.70
2019-03-19T07:21:26.606Z,14.17
2019-03-19T07:23:55.458Z,15.13
2019-03-19T07:26:24.373Z,15.67
2019-03-19T07:28:53.218Z,14.47
2019-03-19T07:31:30.432Z,15.33
2019-03-19T07:33:52.721Z,14.80
2019-03-19T07:36:21.587Z,16.27
2019-03-19T07:38:50.507Z,15.60
2019-03-19T07:41:19.326Z,16.33
2019-03-19T07:43:48.162Z,15.70
2019-03-19T07:46:16.997Z,15.93
2019-03-19T07:48:45.848Z,16.40
2019-03-19T07:51:14.701Z,17.10
2019-03-19T07:53:43.694Z,17.27
2019-03-19T07:56:12.533Z,16.40
2019-03-19T07:58:45.451Z,17.77
2019-03-19T08:01:12.326Z,18.17
2019-03-19T08:03:41.190Z,17.73
2019-03-19T08:06:10.139Z,17.17
2019-03-19T08:08:39.071Z,17.57
2019-03-19T08:11:07.917Z,18.30
2019-03-19T08:13:36.857Z,17.60
2019-03-19T08:16:05.879Z,18.43
2019-03-19T08:18:36.162Z,17.37
2019-03-19T08:21:05.445Z,17.23
2019-03-19T08:23:34.316Z,18.13
2019-03-19T08:26:03.207Z,17.20
2019-03-19T08:28:33.759Z,17.87
2019-03-19T08:31:02.773Z,18.70
2019-03-19T08:33:31.716Z,17.27
2019-03-19T08:36:08.942Z,17.90
2019-03-19T08:38:31.098Z,17.70
2019-03-19T08:40:59.947Z,17.57
2019-03-19T08:43:28.780Z,16.97
2019-03-19T08:45:57.625Z,18.23
2019-03-19T08:48:26.553Z,18.67
2019-03-19T08:50:55.506Z,18.40
2019-03-19T08:53:24.354Z,18.40
2019-03-19T08:55:53.191Z,17.73
2019-03-19T08:58:22.009Z,19.30
2019-03-19T09:00:50.825Z,19.53
2019-03-19T09:03:19.755Z,19.00
2019-03-19T09:05:48.689Z,18.80
2019-03-19T09:08:17.560Z,19.37
2019-03-19T09:10:46.494Z,19.93
2019-03-19T09:13:15.350Z,19.47
2019-03-19T09:15:44.213Z,19.87
2019-03-19T09:18:13.222Z,19.53
2019-03-19T09:20:42.067Z,19.23
2019-03-19T09:23:10.994Z,19.53
2019-03-19T09:25:39.903Z,18.27
2019-03-19T09:28:08.811Z,18.17
2019-03-19T09:30:37.693Z,17.90
2019-03-19T09:33:06.669Z,19.23
2019-03-19T09:35:35.646Z,17.37
2019-03-19T09:38:04.663Z,16.13
2019-03-19T09:40:33.512Z,17.87
2019-03-19T09:43:02.433Z,16.47
2019-03-19T09:45:31.382Z,15.53
2019-03-19T09:48:00.303Z,15.97
2019-03-19T09:50:29.121Z,15.33
2019-03-19T09:52:58.125Z,16.23
2019-03-19T09:55:26.949Z,14.07
2019-03-19T09:57:55.798Z,14.03
2019-03-19T10:00:24.796Z,14.23
2019-03-19T10:02:53.776Z,13.10
2019-03-19T10:05:22.782Z,13.00
2019-03-19T10:07:51.623Z,12.30
2019-03-19T10:10:20.561Z,12.30
2019-03-19T10:12:49.582Z,11.90
2019-03-19T10:15:19.190Z,11.33
2019-03-19T10:17:48.096Z,10.53
2019-03-19T10:20:18.027Z,10.60
2019-03-19T10:22:47.478Z,9.13
2019-03-19T10:25:16.540Z,8.87
2019-03-19T10:27:45.556Z,7.50
2019-03-19T10:30:16.612Z,7.43
2019-03-19T10:32:45.630Z,6.60
2019-03-19T10:35:14.801Z,7.13
2019-03-19T10:37:43.810Z,7.40
2019-03-19T10:40:12.878Z,7.53
2019-03-19T10:42:41.768Z,6.93
2019-03-19T10:45:11.518Z,7.37
2019-03-19T10:47:40.494Z,6.47
2019-03-19T10:50:13.273Z,6.80
2019-03-19T10:52:42.185Z,7.50
2019-03-19T10:55:11.156Z,7.20
2019-03-19T10:57:40.090Z,6.53
2019-03-19T11:00:18.357Z,7.37
2019-03-19T11:02:47.370Z,7.90
2019-03-19T11:05:16.650Z,6.87
2019-03-19T11:07:45.653Z,3.80
2019-03-19T11:10:14.669Z,7.37
2019-03-19T11:12:43.785Z,6.73
2019-03-19T11:15:14.753Z,4.97
2019-03-19T11:17:43.821Z,6.30
2019-03-19T11:20:14.749Z,6.50
2019-03-19T11:22:43.715Z,6.47
2019-03-19T11:25:14.015Z,6.07
2019-03-19T11:27:43.059Z,3.43
2019-03-19T11:30:15.130Z,4.57
2019-03-19T11:32:44.041Z,4.73
2019-03-19T11:35:13.057Z,3.37
2019-03-19T11:37:42.187Z,3.80
2019-03-19T11:40:11.962Z,3.40
2019-03-19T11:42:40.944Z,5.20
2019-03-19T11:45:10.546Z,4.00
2019-03-19T11:47:39.526Z,4.47
2019-03-19T11:50:11.688Z,3.53
2019-03-19T11:52:40.586Z,5.80
2019-03-19T11:55:09.759Z,2.57
2019-03-19T11:57:38.770Z,2.80
2019-03-19T12:00:11.807Z,4.77
2019-03-19T12:02:40.762Z,4.80
2019-03-19T12:05:09.754Z,4.27
2019-03-19T12:07:38.593Z,4.97
2019-03-19T12:10:07.533Z,5.57
2019-03-19T12:12:36.389Z,4.77
2019-03-19T12:15:05.597Z,3.10
2019-03-19T12:17:34.506Z,3.87
2019-03-19T12:20:03.676Z,3.33
2019-03-19T12:22:32.535Z,1.90
2019-03-19T12:25:01.503Z,2.47
2019-03-19T12:27:30.391Z,2.40
2019-03-19T12:29:59.322Z,2.10
2019-03-19T12:32:28.322Z,2.43
2019-03-19T12:34:57.142Z,2.37
2019-03-19T12:37:26.081Z,2.00
2019-03-19T12:39:54.916Z,2.40
2019-03-19T12:42:23.798Z,2.00
2019-03-19T12:44:52.766Z,2.03
2019-03-19T12:47:21.627Z,1.60
2019-03-19T12:49:50.538Z,1.53
2019-03-19T12:52:19.353Z,1.60
2019-03-19T12:54:48.200Z,2.10
2019-03-19T12:57:17.028Z,1.80
2019-03-19T12:59:45.880Z,1.90
2019-03-19T13:02:14.797Z,1.47
2019-03-19T13:04:43.733Z,1.50
2019-03-19T13:07:12.751Z,1.90
2019-03-19T13:09:41.670Z,2.00
2019-03-19T13:12:10.601Z,1.70
2019-03-19T13:14:39.514Z,1.80
2019-03-19T13:17:08.446Z,1.73
2019-03-19T13:19:37.271Z,1.60
2019-03-19T13:22:06.342Z,2.30
2019-03-19T13:24:35.189Z,2.30
2019-03-19T13:27:04.190Z,2.50
2019-03-19T13:29:33.087Z,2.37
2019-03-19T13:32:01.958Z,3.27
2019-03-19T13:34:30.946Z,1.97
2019-03-19T13:36:59.786Z,1.90
2019-03-19T13:39:28.680Z,2.53
2019-03-19T13:41:57.517Z,2.70
2019-03-19T13:44:26.358Z,3.07
2019-03-19T13:46:55.263Z,2.67
2019-03-19T13:49:24.096Z,1.60
2019-03-19T13:51:53.056Z,2.57
2019-03-19T13:54:21.914Z,1.97
2019-03-19T13:56:50.725Z,1.57
2019-03-19T13:59:19.561Z,2.13
2019-03-19T14:01:48.392Z,1.90
2019-03-19T14:04:17.243Z,1.97
2019-03-19T14:06:46.077Z,2.23
2019-03-19T14:09:14.929Z,2.00
2019-03-19T14:11:43.838Z,2.07
2019-03-19T14:14:12.734Z,1.77
2019-03-19T14:16:41.551Z,1.90
2019-03-19T14:19:10.401Z,2.73
2019-03-19T14:21:39.303Z,2.03
2019-03-19T14:24:08.239Z,2.17
2019-03-19T14:26:37.097Z,1.90
2019-03-19T14:29:06.038Z,2.07
2019-03-19T14:31:34.936Z,2.73
2019-03-19T14:34:03.851Z,3.00
2019-03-19T14:36:32.683Z,1.63
2019-03-19T14:39:01.590Z,2.40
2019-03-19T14:41:30.518Z,2.97
2019-03-19T14:43:59.575Z,2.03
2019-03-19T14:46:28.489Z,2.97
2019-03-19T14:48:57.314Z,3.10
2019-03-19T14:51:26.245Z,2.37
2019-03-19T14:53:55.142Z,3.00
2019-03-19T14:56:23.982Z,2.57
2019-03-19T14:58:52.786Z,1.90
2019-03-19T15:01:21.693Z,2.10
2019-03-19T15:03:50.560Z,1.63
2019-03-19T15:06:19.482Z,1.70
2019-03-19T15:08:48.310Z,1.90
2019-03-19T15:11:17.338Z,1.90
2019-03-19T15:13:46.181Z,2.80
2019-03-19T15:16:15.174Z,2.83
2019-03-19T15:18:44.070Z,1.67
2019-03-19T15:21:12.920Z,1.90
2019-03-19T15:23:41.742Z,1.83
2019-03-19T15:26:10.596Z,2.53
2019-03-19T15:28:39.450Z,2.77
2019-03-19T15:31:08.378Z,1.70
2019-03-19T15:33:37.207Z,1.90
2019-03-19T15:36:06.095Z,2.43
2019-03-19T15:38:34.951Z,2.33
2019-03-19T15:41:03.863Z,2.00
2019-03-19T15:43:32.829Z,2.17
2019-03-19T15:46:01.865Z,1.87
2019-03-19T15:48:30.694Z,2.20
2019-03-19T15:50:59.553Z,2.57
2019-03-19T15:53:28.390Z,1.87
2019-03-19T15:55:57.239Z,2.60
2019-03-19T15:58:26.066Z,2.63
2019-03-19T16:00:54.882Z,2.93
2019-03-19T16:03:23.754Z,3.50
2019-03-19T16:05:52.583Z,3.00
2019-03-19T16:08:21.479Z,3.80
2019-03-19T16:10:50.473Z,2.50
2019-03-19T16:13:19.334Z,3.27
2019-03-19T16:15:48.312Z,3.50
2019-03-19T16:18:17.141Z,2.83
2019-03-19T16:20:45.972Z,2.87
2019-03-19T16:23:14.866Z,2.60
2019-03-19T16:25:43.808Z,2.77
2019-03-19T16:28:12.622Z,1.80
2019-03-19T16:30:41.460Z,2.20
2019-03-19T16:33:10.350Z,2.77
2019-03-19T16:35:39.192Z,2.93
2019-03-19T16:38:08.023Z,2.73
2019-03-19T16:40:36.910Z,2.73
2019-03-19T16:43:06.205Z,2.93
2019-03-19T16:45:35.021Z,2.03
2019-03-19T16:48:03.939Z,2.83
2019-03-19T16:50:32.762Z,2.37
2019-03-19T16:53:01.686Z,3.10
2019-03-19T16:55:30.600Z,3.40
2019-03-19T16:57:59.662Z,3.60
2019-03-19T17:00:28.665Z,2.87
2019-03-19T17:02:57.662Z,1.93
2019-03-19T17:05:26.631Z,2.13
2019-03-19T17:07:55.615Z,2.03
2019-03-19T17:10:24.692Z,2.40
2019-03-19T17:12:53.674Z,2.30
2019-03-19T17:15:22.700Z,2.40
2019-03-19T17:17:51.730Z,1.70
2019-03-19T17:20:20.688Z,3.10
2019-03-19T17:22:49.793Z,2.87
2019-03-19T17:25:19.033Z,2.67
2019-03-19T17:27:48.091Z,2.60
2019-03-19T17:30:19.357Z,2.70
2019-03-19T17:32:48.322Z,2.63
2019-03-19T17:35:17.280Z,2.80
2019-03-19T17:37:46.362Z,3.10
2019-03-19T17:40:15.391Z,3.03
2019-03-19T17:42:44.777Z,3.10
2019-03-19T17:45:13.869Z,3.13
2019-03-19T17:47:42.873Z,3.33
2019-03-19T17:51:08.466Z,3.27
2019-03-19T17:53:37.398Z,4.00
2019-03-19T17:56:06.441Z,3.93
2019-03-19T17:58:35.276Z,3.83
2019-03-19T18:01:04.252Z,4.33
2019-03-19T18:03:33.098Z,4.77
2019-03-19T18:06:02.035Z,5.40
2019-03-19T18:08:31.102Z,5.40
2019-03-19T18:11:00.040Z,5.57
2019-03-19T18:13:28.875Z,5.60
2019-03-19T18:15:57.720Z,5.83
2019-03-19T18:18:26.705Z,6.30
2019-03-19T18:20:55.601Z,5.57
2019-03-19T18:23:24.440Z,6.27
2019-03-19T18:25:53.462Z,6.53
2019-03-19T18:28:22.342Z,7.10
2019-03-19T18:30:51.299Z,6.47
2019-03-19T18:33:20.242Z,6.73
2019-03-19T18:35:49.078Z,7.57
2019-03-19T18:38:17.919Z,8.50
2019-03-19T18:40:47.113Z,7.63
2019-03-19T18:43:16.005Z,7.30
2019-03-19T18:45:44.843Z,7.73
2019-03-19T18:48:13.868Z,7.80
2019-03-19T18:50:42.717Z,8.73
2019-03-19T18:53:11.951Z,8.87
2019-03-19T18:55:40.874Z,8.13
2019-03-19T18:58:09.802Z,9.37
2019-03-19T19:00:38.748Z,8.03
2019-03-19T19:03:08.661Z,9.13
2019-03-19T19:05:37.514Z,7.97
2019-03-19T19:08:06.437Z,9.23
2019-03-19T19:10:35.380Z,9.03
2019-03-19T19:13:04.445Z,9.17
2019-03-19T19:15:33.292Z,9.03
2019-03-19T19:18:02.519Z,9.30
2019-03-19T19:20:31.377Z,9.83
2019-03-19T19:23:02.694Z,9.53
2019-03-19T19:25:30.877Z,10.53
2019-03-19T19:27:59.827Z,10.13
2019-03-19T19:30:28.881Z,10.07
2019-03-19T19:33:02.163Z,10.40
2019-03-19T19:35:28.498Z,9.80
2019-03-19T19:37:57.359Z,10.60
2019-03-19T19:40:26.422Z,11.30
2019-03-19T19:42:55.367Z,12.23
2019-03-19T19:45:24.373Z,11.33
2019-03-19T19:47:53.423Z,11.57
2019-03-19T19:50:22.438Z,11.43
2019-03-19T19:52:51.443Z,10.10
2019-03-19T19:55:20.408Z,10.07
2019-03-19T19:57:49.415Z,9.57
2019-03-19T20:00:18.437Z,10.10
2019-03-19T20:02:47.429Z,9.37
2019-03-19T20:05:16.476Z,9.40
2019-03-19T20:07:45.587Z,8.60
2019-03-19T20:10:16.330Z,9.10
2019-03-19T20:12:45.269Z,8.67
2019-03-19T20:15:14.301Z,9.27
2019-03-19T20:17:43.343Z,9.00
2019-03-19T20:20:14.107Z,9.33
2019-03-19T20:22:44.791Z,9.20
2019-03-19T20:25:13.744Z,9.47
2019-03-19T20:27:42.704Z,10.33
2019-03-19T20:30:14.166Z,9.27
2019-03-19T20:32:43.225Z,8.70
2019-03-19T20:35:12.675Z,9.23
2019-03-19T20:37:41.699Z,9.73
2019-03-19T20:40:11.760Z,9.60
2019-03-19T20:42:40.784Z,9.63
2019-03-19T20:45:10.586Z,9.53
2019-03-19T20:47:39.502Z,9.87
2019-03-19T20:50:15.160Z,10.40
2019-03-19T20:53:02.487Z,10.30
2019-03-19T20:55:31.430Z,10.53
2019-03-19T20:58:00.666Z,10.83
2019-03-19T21:00:29.710Z,10.70
2019-03-19T21:02:58.668Z,11.63
2019-03-19T21:05:27.688Z,11.70
2019-03-19T21:07:56.592Z,12.07
2019-03-19T21:10:25.574Z,12.13
2019-03-19T21:12:54.572Z,12.03
2019-03-19T21:15:24.459Z,12.33
2019-03-19T21:17:53.467Z,11.77
2019-03-19T21:20:22.516Z,13.17
2019-03-19T21:22:51.459Z,12.87
2019-03-19T21:25:20.453Z,11.67
2019-03-19T21:27:49.475Z,12.70
2019-03-19T21:30:18.302Z,12.20
2019-03-19T21:32:47.205Z,13.37
2019-03-19T21:35:19.258Z,12.50
2019-03-19T21:37:48.339Z,13.37
2019-03-19T21:40:17.562Z,13.87
2019-03-19T21:42:46.542Z,12.97
2019-03-19T21:45:15.526Z,14.00
2019-03-19T21:47:44.527Z,14.30
2019-03-19T21:50:14.127Z,14.23
2019-03-19T21:52:43.057Z,14.97
2019-03-19T21:55:14.062Z,14.20
2019-03-19T21:57:42.639Z,14.13
2019-03-19T22:00:13.630Z,13.63
2019-03-19T22:02:42.638Z,14.47
2019-03-19T22:05:11.649Z,13.60
2019-03-19T22:07:40.457Z,14.27
2019-03-19T22:10:11.308Z,13.97
2019-03-19T22:12:40.270Z,14.17
2019-03-19T22:15:13.341Z,13.43
2019-03-19T22:17:42.321Z,14.47
2019-03-19T22:20:11.320Z,15.23
2019-03-19T22:22:40.238Z,14.77
2019-03-19T22:25:10.063Z,14.43
2019-03-19T22:27:39.027Z,15.03
2019-03-19T22:30:10.692Z,14.70
2019-03-19T22:32:39.698Z,14.73
2019-03-19T22:35:08.618Z,14.47
2019-03-19T22:37:37.465Z,14.43
2019-03-19T22:40:07.828Z,15.23
2019-03-19T22:42:36.665Z,14.53
2019-03-19T22:45:07.129Z,14.60
2019-03-19T22:47:35.951Z,13.93
2019-03-19T22:50:05.638Z,13.43
2019-03-19T22:52:34.562Z,12.90
2019-03-19T22:55:03.487Z,13.93
2019-03-19T22:57:32.342Z,12.70
2019-03-19T23:00:01.194Z,12.37
2019-03-19T23:02:30.210Z,13.07
2019-03-19T23:04:59.110Z,11.90
2019-03-19T23:07:27.970Z,11.10
2019-03-19T23:09:56.940Z,11.13
2019-03-19T23:12:25.934Z,11.40
2019-03-19T23:14:54.818Z,11.23
2019-03-19T23:17:23.778Z,10.30
2019-03-19T23:19:52.618Z,9.70
2019-03-19T23:22:21.561Z,10.27
2019-03-19T23:24:50.470Z,10.37
2019-03-19T23:27:19.397Z,9.47
2019-03-19T23:29:48.339Z,8.63
2019-03-19T23:32:17.243Z,8.50
2019-03-19T23:34:46.230Z,8.67
2019-03-19T23:37:15.145Z,8.60
2019-03-19T23:39:44.008Z,8.13
2019-03-19T23:42:12.839Z,7.70
2019-03-19T23:44:41.770Z,7.40
2019-03-19T23:47:10.680Z,7.60
2019-03-19T23:49:39.599Z,6.87
2019-03-19T23:52:08.665Z,7.37
2019-03-19T23:54:37.511Z,6.30
2019-03-19T23:57:06.533Z,6.63
2019-03-19T23:59:35.523Z,6.03
